Time;durP1;ratioP1;P1;durP2;ratioP2;P2;SDS_P1;SDS_P2;PMS_P1;PMS_P2;Temp;Humidity;BMP_temperature;BMP_pressure;BME280_temperature;BME280_humidity;BME280_pressure;Samples;Min_cycle;Max_cycle;Signal;HPM_P1;HPM_P2
2024/04/10 00:01:44;;;;;;;7.50;4.70;;;;;;;14.00;100.00;101181.40;109866;1250;73889;-77
2024/04/10 00:04:12;;;;;;;6.80;4.70;;;;;;;14.02;100.00;101179.00;109866;1249;63805;-77
2024/04/10 00:06:39;;;;;;;12.20;8.20;;;;;;;14.03;100.00;101175.80;109816;1251;72639;-77
2024/04/10 00:09:07;;;;;;;19.20;15.10;;;;;;;14.04;100.00;101180.83;109775;1250;60104;-77
2024/04/10 00:11:34;;;;;;;8.70;5.80;;;;;;;14.03;100.00;101181.56;109853;1250;58734;-77
2024/04/10 00:14:02;;;;;;;10.90;4.90;;;;;;;14.02;100.00;101181.61;109824;1250;73874;-77
2024/04/10 00:16:29;;;;;;;8.40;4.70;;;;;;;14.01;100.00;101185.75;109827;1251;62694;-78
2024/04/10 00:18:57;;;;;;;9.30;5.10;;;;;;;14.00;100.00;101187.74;109820;1249;72655;-77
2024/04/10 00:21:24;;;;;;;8.90;5.50;;;;;;;13.99;100.00;101189.41;109909;1250;60057;-75
2024/04/10 00:23:51;;;;;;;6.00;4.90;;;;;;;13.97;100.00;101191.48;109888;1251;58767;-78
2024/04/10 00:26:19;;;;;;;11.20;4.20;;;;;;;13.94;100.00;101191.86;109876;1249;72642;-78
2024/04/10 00:28:46;;;;;;;6.30;4.40;;;;;;;13.91;100.00;101189.73;109893;1250;63628;-77
2024/04/10 00:31:14;;;;;;;7.30;4.30;;;;;;;13.91;100.00;101180.09;109826;1249;72694;-77
2024/04/10 00:33:41;;;;;;;7.30;4.00;;;;;;;13.91;100.00;101174.64;109787;1250;58999;-77
2024/04/10 00:36:10;;;;;;;10.60;4.10;;;;;;;13.92;100.00;101173.86;109873;1249;59980;-78
2024/04/10 00:38:38;;;;;;;6.70;3.90;;;;;;;13.92;100.00;101172.27;109858;1249;73050;-77
2024/04/10 00:41:06;;;;;;;9.50;4.10;;;;;;;13.93;100.00;101166.90;109852;1250;63738;-77
2024/04/10 00:43:33;;;;;;;8.30;3.50;;;;;;;13.94;100.00;101163.52;109803;1249;71595;-77
2024/04/10 00:46:14;;;;;;;6.70;3.60;;;;;;;13.95;100.00;101159.27;109816;1251;60177;-77
2024/04/10 00:48:42;;;;;;;6.70;4.00;;;;;;;13.95;100.00;101152.90;109853;1249;58769;-77
2024/04/10 00:51:11;;;;;;;13.90;9.80;;;;;;;13.95;100.00;101153.45;109860;1250;73918;-77
2024/04/10 00:53:39;;;;;;;11.30;8.90;;;;;;;13.92;100.00;101155.72;109853;1251;63905;-76
2024/04/10 00:56:08;;;;;;;15.80;12.20;;;;;;;13.88;100.00;101154.24;109848;1249;71639;-77
2024/04/10 00:58:36;;;;;;;22.50;15.40;;;;;;;13.84;100.00;101147.13;109668;1251;60147;-78
2024/04/10 01:01:04;;;;;;;12.70;11.40;;;;;;;13.79;100.00;101148.15;109882;1249;59999;-77
2024/04/10 01:03:33;;;;;;;14.70;11.10;;;;;;;13.75;100.00;101148.96;109882;1250;73861;-78
2024/04/10 01:06:02;;;;;;;22.80;19.20;;;;;;;13.70;100.00;101147.36;109882;1249;62404;-77
2024/04/10 01:08:31;;;;;;;20.40;14.90;;;;;;;13.64;100.00;101148.40;109821;1250;72729;-76
2024/04/10 01:10:59;;;;;;;11.60;9.00;;;;;;;13.58;100.00;101149.70;109811;1251;60186;-75
2024/04/10 01:13:27;;;;;;;13.60;9.50;;;;;;;13.51;100.00;101150.98;109850;1249;58732;-77
2024/04/10 01:15:55;;;;;;;9.40;8.00;;;;;;;13.46;100.00;101155.33;109829;1250;73754;-78
2024/04/10 01:18:23;;;;;;;11.90;4.80;;;;;;;13.43;100.00;101161.16;109825;1249;63794;-78
2024/04/10 01:20:50;;;;;;;5.90;4.40;;;;;;;13.42;100.00;101162.84;109807;1249;71709;-77
2024/04/10 01:23:18;;;;;;;6.30;3.60;;;;;;;13.41;100.00;101167.27;109766;1250;58830;-77
2024/04/10 01:25:46;;;;;;;8.20;3.50;;;;;;;13.42;100.00;101168.83;109807;1251;59255;-79
2024/04/10 01:28:14;;;;;;;7.60;4.10;;;;;;;13.43;100.00;101173.33;109816;1250;73795;-76
2024/04/10 01:30:41;;;;;;;6.10;3.60;;;;;;;13.43;100.00;101165.52;109833;1250;63514;-78
2024/04/10 01:33:08;;;;;;;8.10;4.20;;;;;;;13.46;100.00;101162.73;109814;1249;72470;-77
2024/04/10 01:35:36;;;;;;;6.50;4.00;;;;;;;13.48;100.00;101164.20;109791;1251;60046;-77
2024/04/10 01:38:03;;;;;;;9.80;4.30;;;;;;;13.51;100.00;101165.09;109895;1250;59949;-77
2024/04/10 01:40:31;;;;;;;6.20;3.80;;;;;;;13.52;100.00;101162.54;109800;1251;73901;-77
2024/04/10 01:42:58;;;;;;;6.00;4.10;;;;;;;13.54;100.00;101168.22;109844;1249;63867;-77
2024/04/10 01:45:25;;;;;;;6.10;3.80;;;;;;;13.56;100.00;101172.81;109826;1250;71605;-77
2024/04/10 01:47:53;;;;;;;7.80;3.90;;;;;;;13.57;100.00;101171.35;109800;1250;58864;-77
2024/04/10 01:50:20;;;;;;;7.60;4.50;;;;;;;13.59;100.00;101175.45;109910;1249;59089;-77
2024/04/10 01:52:48;;;;;;;10.50;4.50;;;;;;;13.60;100.00;101182.05;109854;1249;73790;-77
2024/04/10 01:55:15;;;;;;;6.70;4.90;;;;;;;13.60;100.00;101190.64;109877;1249;63477;-75
2024/04/10 01:57:44;;;;;;;5.00;4.50;;;;;;;13.59;100.00;101187.95;109811;1250;71532;-76
2024/04/10 02:00:12;;;;;;;7.60;4.20;;;;;;;13.55;100.00;101192.56;109762;1250;58837;-76
2024/04/10 02:02:39;;;;;;;11.00;4.70;;;;;;;13.51;100.00;101194.05;109881;1250;58905;-77
2024/04/10 02:05:07;;;;;;;7.30;4.50;;;;;;;13.46;100.00;101194.90;109833;1250;73877;-78
2024/04/10 02:07:34;;;;;;;10.50;4.40;;;;;;;13.40;100.00;101194.92;109867;1250;62555;-78
2024/04/10 02:10:01;;;;;;;7.40;5.50;;;;;;;13.34;100.00;101200.03;109817;1250;73440;-77
2024/04/10 02:12:28;;;;;;;11.20;6.30;;;;;;;13.28;100.00;101198.98;109791;1250;58867;-76
2024/04/10 02:14:55;;;;;;;8.30;6.30;;;;;;;13.21;100.00;101194.13;109860;1250;60015;-78
2024/04/10 02:17:23;;;;;;;7.90;5.50;;;;;;;13.15;100.00;101195.17;109814;1250;74692;-77
2024/04/10 02:19:51;;;;;;;8.90;4.40;;;;;;;13.10;100.00;101192.00;109692;1251;62241;-77
2024/04/10 02:22:18;;;;;;;10.80;4.90;;;;;;;13.04;100.00;101190.40;109863;1250;71356;-77
2024/04/10 02:24:46;;;;;;;8.50;5.30;;;;;;;12.99;100.00;101187.92;109798;1249;58935;-79
2024/04/10 02:27:13;;;;;;;7.40;4.70;;;;;;;12.94;100.00;101192.61;109851;1250;58943;-77
2024/04/10 02:29:41;;;;;;;11.60;5.10;;;;;;;12.89;100.00;101194.49;109823;1250;73604;-76
2024/04/10 02:32:08;;;;;;;10.80;4.80;;;;;;;12.85;100.00;101196.13;109832;1250;63791;-79
2024/04/10 02:34:36;;;;;;;11.40;4.70;;;;;;;12.82;100.00;101197.93;109813;1250;71355;-77
2024/04/10 02:37:04;;;;;;;9.90;5.70;;;;;;;12.77;100.00;101197.84;109787;1249;59941;-78
2024/04/10 02:39:32;;;;;;;16.20;5.00;;;;;;;12.74;100.00;101201.17;109846;1250;58979;-78
2024/04/10 02:41:59;;;;;;;12.90;6.00;;;;;;;12.71;100.00;101204.52;109809;1250;74659;-77
2024/04/10 02:44:26;;;;;;;9.20;4.40;;;;;;;12.66;100.00;101206.75;109868;1249;64010;-78
2024/04/10 02:46:55;;;;;;;13.00;5.60;;;;;;;12.59;100.00;101206.77;109796;1249;70933;-77
2024/04/10 02:49:22;;;;;;;12.30;6.50;;;;;;;12.56;100.00;101204.51;109801;1251;61713;-76
2024/04/10 02:51:49;;;;;;;14.00;5.70;;;;;;;12.53;100.00;101207.88;109888;1250;58988;-77
2024/04/10 02:54:17;;;;;;;11.30;4.80;;;;;;;12.48;100.00;101214.64;109825;1250;75110;-75
2024/04/10 02:56:44;;;;;;;14.90;4.70;;;;;;;12.43;100.00;101216.48;109855;1249;63977;-77
2024/04/10 02:59:12;;;;;;;8.20;4.80;;;;;;;12.39;100.00;101220.42;109817;1249;72803;-77
2024/04/10 03:01:39;;;;;;;12.00;6.00;;;;;;;12.34;100.00;101222.82;109901;1249;61718;-76
2024/04/10 03:04:07;;;;;;;10.80;4.60;;;;;;;12.29;100.00;101225.06;109845;1250;59037;-76
2024/04/10 03:06:34;;;;;;;7.10;5.50;;;;;;;12.24;100.00;101222.35;109820;1249;74667;-76
2024/04/10 03:09:02;;;;;;;11.20;5.80;;;;;;;12.21;100.00;101217.94;109859;1250;62378;-77
2024/04/10 03:11:29;;;;;;;19.20;7.10;;;;;;;12.20;100.00;101215.91;109809;1249;71562;-78
2024/04/10 03:13:58;;;;;;;14.20;6.00;;;;;;;12.18;100.00;101213.90;109789;1250;60438;-78
2024/04/10 03:16:26;;;;;;;18.30;6.90;;;;;;;12.15;100.00;101218.11;109826;1250;58902;-77
2024/04/10 03:18:53;;;;;;;11.80;5.70;;;;;;;12.11;100.00;101216.60;109827;1249;74594;-75
2024/04/10 03:21:21;;;;;;;14.90;6.20;;;;;;;12.07;100.00;101213.31;109872;1249;62265;-76
2024/04/10 03:23:49;;;;;;;12.50;6.90;;;;;;;12.02;100.00;101213.04;109813;1249;71640;-76
2024/04/10 03:26:16;;;;;;;14.40;6.10;;;;;;;11.98;100.00;101207.52;109836;1250;62766;-77
2024/04/10 03:28:43;;;;;;;14.80;6.70;;;;;;;11.95;100.00;101204.55;109863;1250;59944;-77
2024/04/10 03:31:13;;;;;;;15.50;7.70;;;;;;;11.92;100.00;101205.23;109825;1249;73141;-77
2024/04/10 03:33:41;;;;;;;14.20;7.40;;;;;;;11.91;100.00;101208.10;109835;1249;62413;-77
2024/04/10 03:36:08;;;;;;;15.20;7.00;;;;;;;11.90;100.00;101207.80;109807;1250;73216;-78
2024/04/10 03:38:36;;;;;;;12.80;7.70;;;;;;;11.91;100.00;101214.08;109790;1250;61758;-78
2024/04/10 03:41:03;;;;;;;20.60;7.00;;;;;;;11.90;100.00;101215.52;109822;1250;58977;-79
2024/04/10 03:43:31;;;;;;;12.70;6.90;;;;;;;11.89;100.00;101217.47;109842;1249;73240;-76
2024/04/10 03:46:00;;;;;;;18.60;8.20;;;;;;;11.92;100.00;101215.76;109836;1249;63611;-78
2024/04/10 03:48:27;;;;;;;19.70;7.60;;;;;;;11.98;100.00;101213.28;109864;1250;72365;-78
2024/04/10 03:50:59;;;;;;;42.40;8.00;;;;;;;12.07;100.00;101215.98;109794;1250;61662;-79
2024/04/10 03:53:28;;;;;;;19.40;7.10;;;;;;;12.13;100.00;101218.08;109789;1250;62076;-76
2024/04/10 03:55:56;;;;;;;15.60;7.80;;;;;;;12.19;100.00;101223.31;109698;1250;74651;-77
2024/04/10 03:58:24;;;;;;;8.60;6.30;;;;;;;12.25;100.00;101226.35;109835;1250;63626;-77
2024/04/10 04:00:51;;;;;;;16.00;7.10;;;;;;;12.31;100.00;101229.16;109827;1250;72452;-78
2024/04/10 04:03:24;;;;;;;15.60;6.30;;;;;;;12.37;100.00;101225.10;109796;1250;60922;-77
2024/04/10 04:05:52;;;;;;;39.40;8.20;;;;;;;12.43;100.00;101228.94;109845;1249;58966;-79
2024/04/10 04:08:23;;;;;;;46.20;8.00;;;;;;;12.50;100.00;101227.70;109843;1250;74646;-77
2024/04/10 04:10:50;;;;;;;28.00;8.40;;;;;;;12.57;100.00;101228.30;109870;1249;63561;-78
2024/04/10 04:13:18;;;;;;;14.20;6.30;;;;;;;12.65;100.00;101229.95;109694;1254;71082;-78
2024/04/10 04:15:45;;;;;;;15.00;6.60;;;;;;;12.78;100.00;101234.98;109810;1249;60424;-78
2024/04/10 04:18:12;;;;;;;19.70;7.60;;;;;;;12.95;100.00;101235.20;109852;1249;59900;-76
2024/04/10 04:20:40;;;;;;;11.80;5.70;;;;;;;13.11;100.00;101234.05;109818;1250;74602;-76
2024/04/10 04:23:07;;;;;;;10.60;6.30;;;;;;;13.29;100.00;101235.77;109849;1248;63514;-78
2024/04/10 04:25:37;;;;;;;12.80;7.50;;;;;;;13.55;100.00;101237.01;109817;1249;72589;-79
2024/04/10 04:28:05;;;;;;;28.00;8.70;;;;;;;13.77;100.00;101235.27;109802;1250;60538;-78
2024/04/10 04:30:34;;;;;;;18.60;7.10;;;;;;;14.01;100.00;101241.52;109859;1250;59013;-77
2024/04/10 04:33:04;;;;;;;9.00;6.20;;;;;;;14.18;100.00;101240.39;109842;1250;74615;-76
2024/04/10 04:35:31;;;;;;;25.40;6.70;;;;;;;14.31;100.00;101239.55;109838;1249;63696;-78
2024/04/10 04:37:59;;;;;;;15.40;7.10;;;;;;;14.42;100.00;101240.77;109836;1249;72617;-78
2024/04/10 04:40:30;;;;;;;19.00;7.50;;;;;;;14.55;100.00;101244.63;109792;1250;60975;-80
2024/04/10 04:43:12;;;;;;;31.00;7.70;;;;;;;14.71;100.00;101250.80;109855;1250;60708;-77
2024/04/10 04:45:43;;;;;;;24.90;7.80;;;;;;;14.91;100.00;101250.15;109715;1249;74629;-78
2024/04/10 04:48:14;;;;;;;25.30;9.50;;;;;;;15.09;100.00;101251.76;109876;1249;63679;-79
2024/04/10 04:50:42;;;;;;;19.50;7.90;;;;;;;15.26;100.00;101250.05;109888;1250;73400;-80
2024/04/10 04:53:26;;;;;;;18.70;7.10;;;;;;;15.55;100.00;101250.98;109846;1251;60925;-79
2024/04/10 04:55:56;;;;;;;30.60;8.50;;;;;;;15.89;100.00;101253.74;109821;1250;61263;-79
2024/04/10 04:58:23;;;;;;;29.40;8.30;;;;;;;16.36;100.00;101261.89;109778;1249;76825;-78
2024/04/10 05:00:56;;;;;;;36.50;7.60;;;;;;;17.02;100.00;101265.48;109793;1249;62586;-80
2024/04/10 05:06:10;;;;;;;26.80;7.40;;;;;;;18.59;100.00;101263.34;109781;1250;59017;-79
2024/04/10 05:08:37;;;;;;;31.40;8.30;;;;;;;19.31;99.73;101260.80;109805;1250;59179;-80
2024/04/10 05:11:08;;;;;;;31.90;7.50;;;;;;;20.01;90.86;101263.16;109819;1249;74561;-79
2024/04/10 05:13:36;;;;;;;29.70;6.40;;;;;;;20.68;79.06;101268.28;109833;1250;64823;-79
2024/04/10 05:16:04;;;;;;;14.70;6.20;;;;;;;21.32;71.18;101269.09;109772;1249;72919;-79
2024/04/10 05:18:31;;;;;;;22.50;6.10;;;;;;;21.92;65.14;101267.91;109756;1249;60283;-80
2024/04/10 05:21:04;;;;;;;22.00;5.90;;;;;;;22.50;61.15;101268.26;109832;1248;58890;-78
2024/04/10 05:23:41;;;;;;;14.50;5.70;;;;;;;23.11;57.45;101269.77;109830;1249;75195;-78
2024/04/10 05:26:09;;;;;;;23.20;6.40;;;;;;;23.60;54.99;101277.20;109832;1250;62422;-79
2024/04/10 05:28:36;;;;;;;21.80;6.60;;;;;;;24.05;51.82;101275.72;109905;1250;71324;-80
2024/04/10 05:31:04;;;;;;;9.00;5.50;;;;;;;24.50;49.57;101274.30;109753;1250;58504;-81
2024/04/10 05:33:31;;;;;;;23.20;7.50;;;;;;;24.92;46.79;101277.40;109682;1249;62214;-80
2024/04/10 05:36:01;;;;;;;23.00;7.00;;;;;;;25.34;44.87;101278.23;109786;1249;73382;-81
2024/04/10 05:38:31;;;;;;;13.70;6.40;;;;;;;25.80;43.46;101274.16;109850;1250;64175;-81
2024/04/10 05:41:03;;;;;;;9.50;5.30;;;;;;;26.22;41.64;101273.78;109804;1250;72442;-82
2024/04/10 05:43:30;;;;;;;15.20;5.10;;;;;;;26.62;41.35;101272.50;109741;1250;61000;-78
2024/04/10 05:45:59;;;;;;;14.10;4.70;;;;;;;26.97;40.82;101272.63;109941;1249;61372;-80
2024/04/10 05:48:26;;;;;;;15.30;5.20;;;;;;;27.27;39.86;101276.23;109958;1251;74062;-78
2024/04/10 05:50:58;;;;;;;16.50;5.00;;;;;;;27.60;39.63;101284.42;109863;1249;65603;-77
2024/04/10 05:53:26;;;;;;;7.30;4.00;;;;;;;27.90;38.39;101284.61;109793;1250;72520;-81
2024/04/10 05:55:53;;;;;;;23.10;6.00;;;;;;;28.20;38.13;101284.95;109778;1251;59946;-80
2024/04/10 05:58:21;;;;;;;18.20;4.40;;;;;;;28.50;36.89;101288.29;109855;1249;59198;-78
2024/04/10 06:00:49;;;;;;;26.10;5.90;;;;;;;28.80;35.34;101283.03;109824;1250;76590;-81
2024/04/10 06:03:20;;;;;;;18.50;4.90;;;;;;;29.08;34.08;101283.74;109824;1250;64409;-79
2024/04/10 06:05:49;;;;;;;17.40;4.70;;;;;;;29.28;33.65;101282.26;109812;1249;73294;-79
2024/04/10 06:08:17;;;;;;;14.90;4.90;;;;;;;29.55;32.59;101282.89;109775;1251;62154;-82
2024/04/10 06:10:51;;;;;;;12.80;4.60;;;;;;;29.77;32.39;101282.09;109894;1250;62623;-79
2024/04/10 06:13:18;;;;;;;20.00;5.90;;;;;;;30.04;32.68;101281.73;109657;1249;74919;-80
2024/04/10 06:15:45;;;;;;;26.90;4.20;;;;;;;30.33;32.25;101279.43;109729;1249;62719;-82
2024/04/10 06:18:13;;;;;;;7.80;3.50;;;;;;;30.57;31.22;101276.95;109850;1249;74394;-80
2024/04/10 06:20:40;;;;;;;6.30;4.00;;;;;;;30.75;30.82;101272.20;109843;1251;59584;-79
2024/04/10 06:23:08;;;;;;;6.80;3.30;;;;;;;30.94;30.42;101267.79;109871;1250;59884;-80
2024/04/10 06:25:35;;;;;;;18.70;4.10;;;;;;;31.04;29.93;101270.56;109878;1249;73638;-81
2024/04/10 06:28:03;;;;;;;8.70;3.80;;;;;;;31.22;29.92;101274.55;109854;1249;64524;-82
2024/04/10 06:30:31;;;;;;;11.70;3.60;;;;;;;31.36;29.69;101271.18;109845;1249;75076;-80
2024/04/10 06:32:58;;;;;;;9.10;3.40;;;;;;;31.59;29.50;101271.07;109819;1251;59085;-81
2024/04/10 06:35:26;;;;;;;14.10;4.60;;;;;;;31.79;28.51;101270.80;109934;1249;59283;-77
2024/04/10 06:37:56;;;;;;;8.60;3.60;;;;;;;31.94;28.26;101270.48;109843;1250;74461;-82
2024/04/10 06:40:27;;;;;;;6.10;2.80;;;;;;;32.12;27.77;101271.72;110006;1250;64557;-81
2024/04/10 06:42:56;;;;;;;9.30;4.00;;;;;;;32.29;27.97;101273.15;109830;1249;74290;-78
2024/04/10 06:45:24;;;;;;;7.10;3.00;;;;;;;32.45;27.86;101273.62;109781;1250;60524;-79
2024/04/10 06:47:52;;;;;;;4.60;3.10;;;;;;;32.60;27.23;101273.39;109871;1250;59362;-79
2024/04/10 06:50:19;;;;;;;4.20;2.70;;;;;;;32.75;27.05;101273.26;109859;1249;75520;-76
2024/04/10 06:52:47;;;;;;;6.90;3.20;;;;;;;32.94;27.49;101279.08;109833;1250;64449;-79
2024/04/10 06:55:19;;;;;;;5.10;3.40;;;;;;;33.08;27.04;101278.26;109790;1249;73607;-76
2024/04/10 06:57:53;;;;;;;6.50;3.70;;;;;;;33.13;27.05;101279.08;109808;1250;62116;-78
2024/04/10 07:00:21;;;;;;;6.00;4.00;;;;;;;33.25;26.94;101279.75;109847;1250;58864;-78
2024/04/10 07:02:48;;;;;;;6.50;3.70;;;;;;;33.43;26.80;101280.91;109845;1250;73467;-78
2024/04/10 07:05:15;;;;;;;9.80;4.10;;;;;;;33.58;26.62;101281.55;109848;1249;63885;-78
2024/04/10 07:07:43;;;;;;;7.10;3.70;;;;;;;33.68;26.07;101282.47;109805;1250;73260;-77
2024/04/10 07:10:10;;;;;;;9.50;4.10;;;;;;;33.84;25.70;101286.77;109770;1251;58902;-77
2024/04/10 07:12:38;;;;;;;9.60;4.70;;;;;;;33.88;25.79;101280.41;109850;1249;60422;-78
2024/04/10 07:15:06;;;;;;;9.30;4.30;;;;;;;33.98;25.49;101275.79;109822;1249;74055;-79
2024/04/10 07:17:33;;;;;;;11.60;5.00;;;;;;;34.09;25.53;101279.89;109855;1251;62692;-77
2024/04/10 07:20:01;;;;;;;7.40;4.00;;;;;;;34.12;24.94;101279.14;109783;1250;73340;-77
2024/04/10 07:22:28;;;;;;;8.80;4.00;;;;;;;34.21;24.64;101277.59;109750;1250;60642;-78
2024/04/10 07:24:55;;;;;;;7.90;4.20;;;;;;;34.29;24.74;101273.77;109836;1249;58868;-77
2024/04/10 07:27:23;;;;;;;9.00;5.10;;;;;;;34.41;24.35;101266.92;109818;1250;75144;-78
2024/04/10 07:29:51;;;;;;;7.70;4.20;;;;;;;34.57;23.72;101263.73;109660;1251;64136;-79
2024/04/10 07:32:18;;;;;;;7.90;4.90;;;;;;;34.73;23.70;101263.05;109693;1250;72565;-81
2024/04/10 07:34:46;;;;;;;10.30;4.80;;;;;;;34.84;22.90;101265.56;109794;1250;62336;-81
2024/04/10 07:37:13;;;;;;;13.40;5.60;;;;;;;34.86;22.66;101261.16;109820;1251;59886;-81
2024/04/10 07:39:41;;;;;;;8.10;4.30;;;;;;;34.91;22.57;101256.08;109817;1250;74587;-79
2024/04/10 07:42:09;;;;;;;9.10;4.40;;;;;;;34.99;22.62;101257.19;109792;1250;63591;-80
2024/04/10 07:44:36;;;;;;;10.00;4.70;;;;;;;35.15;22.84;101252.59;109786;1249;71419;-78
2024/04/10 07:47:06;;;;;;;8.50;5.40;;;;;;;35.34;22.74;101254.34;109747;1250;61034;-79
2024/04/10 07:49:35;;;;;;;15.30;4.90;;;;;;;35.44;23.35;101250.06;109860;1251;61012;-78
2024/04/10 07:52:02;;;;;;;15.80;5.20;;;;;;;35.55;22.90;101243.91;109862;1251;75089;-79
2024/04/10 07:54:31;;;;;;;8.10;5.00;;;;;;;35.64;23.43;101242.57;109910;1250;65824;-81
2024/04/10 07:56:59;;;;;;;9.30;4.60;;;;;;;35.76;22.83;101241.91;109918;1251;73175;-78
2024/04/10 07:59:26;;;;;;;7.10;4.00;;;;;;;35.94;22.73;101238.42;109695;1251;59344;-81
2024/04/10 08:01:54;;;;;;;8.30;4.50;;;;;;;36.11;23.18;101237.85;109880;1250;59741;-80
2024/04/10 08:04:22;;;;;;;9.20;3.60;;;;;;;36.27;23.30;101239.65;109815;1250;75276;-82
2024/04/10 08:06:50;;;;;;;10.30;4.30;;;;;;;36.42;23.44;101234.91;109743;1251;62310;-81
2024/04/10 08:09:18;;;;;;;8.80;4.60;;;;;;;36.50;23.13;101236.90;109644;1251;72057;-80
2024/04/10 08:11:45;;;;;;;7.40;3.50;;;;;;;36.47;23.25;101237.27;109621;1251;59860;-82
2024/04/10 08:14:13;;;;;;;9.40;3.70;;;;;;;36.44;22.61;101236.81;109698;1251;62270;-80
2024/04/10 08:16:41;;;;;;;6.90;4.30;;;;;;;36.58;22.55;101238.21;109594;1251;74458;-79
2024/04/10 08:19:08;;;;;;;8.10;3.50;;;;;;;36.53;22.03;101235.91;109655;1250;64008;-82
2024/04/10 08:21:37;;;;;;;5.60;3.80;;;;;;;36.41;22.31;101228.28;109613;1251;73057;-81
2024/04/10 08:24:04;;;;;;;10.90;4.70;;;;;;;36.26;21.93;101226.97;109599;1254;58962;-82
2024/04/10 08:26:33;;;;;;;9.50;4.10;;;;;;;36.02;22.70;101225.99;109682;1251;60347;-79
2024/04/10 08:29:02;;;;;;;6.20;3.70;;;;;;;35.92;22.70;101220.52;109668;1251;75745;-81
2024/04/10 08:31:30;;;;;;;7.00;3.90;;;;;;;35.81;22.50;101216.52;109651;1250;62227;-80
2024/04/10 08:33:57;;;;;;;8.70;4.00;;;;;;;35.81;22.37;101216.47;109617;1251;73281;-80
2024/04/10 08:36:27;;;;;;;6.50;4.80;;;;;;;35.87;22.52;101216.34;109683;1251;60017;-81
2024/04/10 08:38:55;;;;;;;6.20;3.90;;;;;;;35.93;22.16;101213.60;109688;1251;62392;-81
2024/04/10 08:41:22;;;;;;;6.60;4.20;;;;;;;36.01;22.28;101212.16;109705;1251;73898;-78
2024/04/10 08:43:51;;;;;;;6.70;4.10;;;;;;;36.06;22.49;101212.19;109679;1251;64559;-76
2024/04/10 08:46:23;;;;;;;8.60;4.10;;;;;;;36.01;22.12;101214.36;109617;1251;75664;-79
2024/04/10 08:48:54;;;;;;;7.80;4.00;;;;;;;35.88;22.42;101210.69;109637;1253;59879;-81
2024/04/10 08:51:23;;;;;;;10.10;5.00;;;;;;;35.90;22.66;101213.23;109658;1251;60692;-79
2024/04/10 08:53:52;;;;;;;6.30;4.00;;;;;;;36.16;21.88;101210.40;109649;1251;73265;-80
2024/04/10 08:56:20;;;;;;;8.70;4.10;;;;;;;36.39;21.49;101206.45;109693;1251;62881;-81
2024/04/10 08:58:47;;;;;;;12.60;4.40;;;;;;;36.62;21.25;101207.70;109679;1251;71572;-80
2024/04/10 09:01:33;;;;;;;4.10;3.50;;;;;;;36.82;21.47;101208.08;109618;1256;62499;-79
2024/04/10 09:04:08;;;;;;;7.90;3.40;;;;;;;37.00;21.06;101207.44;109709;1250;58839;-79
2024/04/10 09:06:36;;;;;;;8.40;3.90;;;;;;;36.92;20.89;101208.16;109738;1250;67402;-81
2024/04/10 09:09:06;;;;;;;9.00;3.50;;;;;;;36.71;20.68;101204.70;109877;1250;64120;-81
2024/04/10 09:11:34;;;;;;;8.00;3.90;;;;;;;36.67;20.82;101200.11;109783;1251;64850;-79
2024/04/10 09:14:06;;;;;;;4.00;3.40;;;;;;;36.77;20.46;101200.84;109814;1251;58976;-82
2024/04/10 09:16:34;;;;;;;7.50;2.90;;;;;;;36.72;20.71;101198.98;109876;1250;58842;-81
2024/04/10 09:19:13;;;;;;;5.00;3.40;;;;;;;36.62;20.97;101198.29;109814;1249;74854;-80
2024/04/10 09:21:42;;;;;;;5.20;3.20;;;;;;;36.62;20.79;101193.85;109878;1251;59019;-83
2024/04/10 09:24:09;;;;;;;7.10;3.50;;;;;;;36.78;20.59;101191.45;109871;1250;73626;-80
2024/04/10 09:26:38;;;;;;;6.00;3.50;;;;;;;36.92;19.88;101190.70;109866;1249;59100;-81
2024/04/10 09:29:09;;;;;;;6.40;3.20;;;;;;;36.90;19.49;101189.42;109876;1251;58939;-80
2024/04/10 09:31:37;;;;;;;5.60;3.70;;;;;;;36.67;19.77;101188.48;109706;1249;76407;-81
2024/04/10 09:34:06;;;;;;;8.60;4.10;;;;;;;36.53;20.16;101183.44;109872;1250;59041;-78
2024/04/10 09:36:34;;;;;;;9.00;3.80;;;;;;;36.36;20.06;101178.60;109819;1250;72815;-78
2024/04/10 09:39:07;;;;;;;11.90;4.50;;;;;;;36.15;19.97;101181.11;109848;1250;58979;-82
2024/04/10 09:41:35;;;;;;;;;;;;;;;36.11;20.51;101179.13;109876;1251;60296;-78
2024/04/10 09:44:03;;;;;;;9.60;4.70;;;;;;;36.21;20.56;101177.34;109852;1252;74183;-76
2024/04/10 09:46:35;;;;;;;11.50;5.10;;;;;;;36.11;20.41;101178.97;109963;1249;65334;-77
2024/04/10 09:52:36;;;;;;;12.60;5.70;;;;;;;36.10;20.67;101174.95;103339;1288;601127;-79
2024/04/10 09:55:03;;;;;;;8.50;5.70;;;;;;;36.14;20.40;101179.19;105496;1267;60135;-81
2024/04/10 09:57:31;;;;;;;13.00;5.80;;;;;;;36.06;20.13;101172.71;105611;1260;59719;-81
2024/04/10 10:00:00;;;;;;;13.00;5.30;;;;;;;35.93;20.32;101174.23;105303;1258;74259;-79
2024/04/10 10:02:34;;;;;;;6.50;4.50;;;;;;;35.99;20.43;101174.16;105656;1260;64765;-80
2024/04/10 10:05:01;;;;;;;6.60;4.60;;;;;;;36.07;19.78;101172.50;105568;1260;72376;-78
2024/04/10 10:07:29;;;;;;;10.30;4.70;;;;;;;35.88;19.94;101174.20;105519;1262;60516;-80
2024/04/10 10:10:07;;;;;;;22.30;7.20;;;;;;;35.65;20.47;101175.02;105734;1262;60363;-81
2024/04/10 10:12:35;;;;;;;8.40;5.30;;;;;;;35.64;20.25;101175.02;105534;1262;75220;-81
2024/04/10 10:15:10;;;;;;;6.90;4.90;;;;;;;35.68;20.30;101173.16;105599;1260;62480;-81
2024/04/10 10:20:30;;;;;;;7.10;5.40;;;;;;;35.77;20.18;101177.14;102560;1290;603804;-81
2024/04/10 10:23:01;;;;;;;8.20;5.70;;;;;;;35.86;19.98;101180.70;105116;1269;60211;-78
2024/04/10 10:25:29;;;;;;;10.70;6.40;;;;;;;35.86;20.29;101184.28;105136;1264;59896;-82
2024/04/10 10:28:07;;;;;;;8.80;6.40;;;;;;;35.82;20.42;101186.46;105122;1270;72345;-82
2024/04/10 10:30:34;;;;;;;12.60;6.40;;;;;;;35.68;20.26;101186.08;105336;1269;65024;-81
2024/04/10 10:33:03;;;;;;;10.60;5.90;;;;;;;35.55;20.64;101185.44;104961;1264;221404;-80
2024/04/10 10:35:30;;;;;;;10.10;6.00;;;;;;;35.55;20.55;101186.27;105234;1263;60453;-82
2024/04/10 10:37:58;;;;;;;8.40;6.30;;;;;;;35.59;20.58;101180.56;105276;1264;60317;-82
2024/04/10 10:40:24;;;;;;;12.10;7.00;;;;;;;35.72;20.97;101183.27;105249;1266;71811;-83
2024/04/10 10:43:05;;;;;;;15.30;6.80;;;;;;;35.88;21.00;101177.80;105247;1267;64984;-85
2024/04/10 10:45:34;;;;;;;12.30;6.50;;;;;;;35.89;20.66;101179.14;106046;1257;74194;-80
2024/04/10 10:48:04;;;;;;;13.10;6.90;;;;;;;35.77;20.62;101180.09;105992;1251;60507;-81
2024/04/10 10:50:32;;;;;;;13.20;6.60;;;;;;;35.50;20.69;101178.61;106238;1252;60554;-81
2024/04/10 10:53:00;;;;;;;8.00;5.40;;;;;;;35.40;20.89;101175.73;106093;1252;73252;-82
2024/04/10 10:55:28;;;;;;;11.50;6.10;;;;;;;35.37;21.04;101172.02;105975;1257;63973;-80
2024/04/10 10:58:14;;;;;;;10.50;6.30;;;;;;;35.33;20.68;101172.65;106190;1251;73112;-83
2024/04/10 11:00:41;;;;;;;8.80;5.70;;;;;;;35.04;20.79;101168.42;105992;1251;60430;-79
2024/04/10 11:03:09;;;;;;;8.30;5.40;;;;;;;34.93;20.94;101166.39;106018;1254;60325;-84
2024/04/10 11:05:50;;;;;;;7.60;5.30;;;;;;;34.87;20.91;101165.67;105976;1255;73925;-83
2024/04/10 11:08:23;;;;;;;8.80;4.40;;;;;;;34.89;20.80;101162.91;106030;1257;65035;-83
2024/04/10 11:10:51;;;;;;;8.70;4.70;;;;;;;34.78;20.83;101158.88;106056;1252;72797;-81
2024/04/10 11:13:18;;;;;;;6.60;4.50;;;;;;;34.73;20.94;101162.89;106082;1256;61572;-83
2024/04/10 11:15:46;;;;;;;7.90;3.70;;;;;;;34.73;21.07;101163.52;105960;1252;62096;-82
2024/04/10 11:18:17;;;;;;;6.50;4.00;;;;;;;34.69;21.08;101163.60;106038;1257;74111;-85
2024/04/10 11:20:50;;;;;;;6.00;3.90;;;;;;;34.67;20.76;101158.16;106198;1251;64174;-80
2024/04/10 11:23:24;;;;;;;7.90;3.80;;;;;;;34.69;20.81;101160.76;106013;1255;72167;-82
2024/04/10 11:25:57;;;;;;;9.90;3.80;;;;;;;34.65;21.08;101155.08;105981;1257;60614;-83